Racecast

Lorenzo Cornejo

Fast & Fierce YT&F (CA) · - · Compare head to head

Athlete rating 121.8 2016 TF season
Best race 128.2 TF
Races 36
Seasons 4 2014 — 2017

RankedNation #5081·CA #401·Team #2 ?

Rating scale ?
Speed rating — all races

Track & Field

TF speed rating

2017 TF 100.0

Fast & Fierce YT&F (CA) · Grade -

Date Meet Event Result Place Rating Difficulty PR/SR Flags
2017-06-03 M.P. Striders USATF PA Youth Sectionals 1500m 5:17.27 6th · 1st on team 101.3 -0.019 SR RSR
2017-06-03 M.P. Striders USATF PA Youth Sectionals 400m 1:01.81 17th · 1st on team -0.019 SR
2017-06-03 M.P. Striders USATF PA Youth Sectionals 800m 2:33.83 9th · 1st on team 99.9 -0.019 SR
2017-04-22 Shor/Sheppard USATF PA Youth T&F 1500m 5:19.5 4th · 1st on team 98.9 -0.035 SR RSR
2017-04-22 Shor/Sheppard USATF PA Youth T&F 400m 1:03.25 8th · 1st on team -0.035 SR

2016 TF 119.7

Fast & Fierce YT&F (CA) · Grade -

Date Meet Event Result Place Rating Difficulty PR/SR Flags
2016-06-12 USATF Pacific Association Youth Championship 1500m 5:04.8 34th · 1st on team 122.6 -0.035 SR RSR
2016-05-29 Central Valley Roadrunners USATF Youth 800m 2:29.63 12th · 1st on team 121.9 -0.030 SR RSR
2016-05-29 Central Valley Roadrunners USATF Youth 1500m 5:09.44 18th · 1st on team 121.3 -0.030 SR
2016-05-29 Central Valley Roadrunners USATF Youth 400m 1:02.77 12th · 1st on team -0.030 SR
2016-04-09 Contra Costa Cheetahs Invitational 1500m 5:16.37 17th · 1st on team 120.2 -0.017 SR RSR
2016-04-09 Contra Costa Cheetahs Invitational 800m 2:35.67 11th · 1st on team 119.0 -0.017
2016-04-02 Sac Speed Factory USATF Youth T&F Meet 800m 2:33.5 11th · 1st on team 118.4 -0.033 SR RSR
2016-04-02 Sac Speed Factory USATF Youth T&F Meet 1500m 5:26.9 13th · 1st on team 114.4 -0.033 SR
2016-04-02 Sac Speed Factory USATF Youth T&F Meet 400m 1:05.02 20th · 1st on team -0.033 SR

2015 TF 123.8

Fast & Fierce YT&F (CA) · Grade -

Date Meet Event Result Place Rating Difficulty PR/SR Flags
2015-06-21 USATF Pacific Association Junior Olympic Championships 1500m 5:04.9 27th · 1st on team 123.4 -0.031
2015-06-21 USATF Pacific Association Junior Olympic Championships 800m 2:28.95 24th · 2nd on team 122.2 -0.031
2015-05-31 PAC (Pacific Association Youth Champions 400m 1:02.72 25th · 1st on team -0.024
2015-05-31 PAC (Pacific Association Youth Champions 800m 2:30.46 27th · 1st on team 121.9 -0.024
2015-05-31 PAC (Pacific Association Youth Champions 1500m 5:01.03 26th · 1st on team 125.9 -0.024 ★PR SR
2015-04-25 Revolution Express Track Club 400m 1:01.72 8th · 2nd on team -0.024 ★PR SR
2015-04-25 Revolution Express Track Club 1500m 5:09.68 10th · 1st on team 122.2 -0.024
2015-04-25 Revolution Express Track Club 800m 2:26.74 6th · 1st on team 124.8 -0.024 ★PR SR
2015-04-18 JFK Cougar Middle School Invitational 800m 2:33 2nd · 1st on team 120.9 -0.016
2015-04-18 JFK Cougar Middle School Invitational 1600m 5:21 2nd · 1st on team 128.2 -0.016 ★PR ★R SR RSR
2015-04-04 Sacramento Speed Factory 800m 2:29.08 11th · 1st on team 121.9 -0.033 PR SR
2015-04-04 Sacramento Speed Factory 400m 1:05.04 28th · 1st on team -0.033 PR SR
2015-03-21 RPM Legacy 1500m 5:02.11 9th · 1st on team 126.1 -0.020 PR R SR RSR
2015-03-21 RPM Legacy 400m 1:05.13 32nd · 1st on team -0.020 PR SR

2014 TF 94.6

Fast & Fierce YT&F (CA) · Grade -

Date Meet Event Result Place Rating Difficulty PR/SR Flags
2014-06-20 USATF Pacific Assoc. Junior Olympics (Top 8) 1500m 5:18.88 16th · 1st on team 99.7 -0.031 PR R SR RSR
2014-06-20 USATF Pacific Assoc. Junior Olympics (Top 8) 800m 2:36.03 13th · 1st on team 97.0 -0.031 PR SR
2014-04-26 Revolution Express TC 800m 2:46.48 5th · 1st on team 91.2 -0.024
2014-04-26 Revolution Express TC 1500m 5:30.38 6th · 1st on team 96.4 -0.024 PR R SR RSR
2014-04-26 Revolution Express TC 400m 1:09.99 10th · 1st on team -0.024 PR SR
2014-04-05 Sacramento Speed Showcase 800m 2:42.42 15th · 1st on team 92.9 -0.033 PR R SR RSR
2014-04-05 Sacramento Speed Showcase 1500m 5:52.2 10th · 1st on team 90.1 -0.033 PR SR
2014-04-05 Sacramento Speed Showcase 400m 1:12.54 24th · 1st on team -0.033 PR SR